createdAt,value
2023-02-28T08:20:18.944Z,21.6
2023-02-28T08:21:23.070Z,21.57
2023-02-28T08:22:27.209Z,21.59
2023-02-28T08:23:31.386Z,21.59
2023-02-28T08:24:35.565Z,21.57
2023-02-28T08:25:39.810Z,21.56
2023-02-28T08:26:43.931Z,21.59
2023-02-28T08:27:48.080Z,21.56
2023-02-28T08:28:52.256Z,21.58
2023-02-28T08:29:58.449Z,21.62
2023-02-28T08:31:02.570Z,21.6
2023-02-28T08:32:09.230Z,21.64
2023-02-28T08:33:32.450Z,21.61
2023-02-28T08:34:36.640Z,21.61
2023-02-28T08:35:40.940Z,21.61
2023-02-28T08:36:45.285Z,21.61
2023-02-28T08:37:49.441Z,21.6
2023-02-28T08:38:53.574Z,21.59
2023-02-28T08:39:57.707Z,21.62
2023-02-28T08:41:02.033Z,21.6
2023-02-28T08:42:07.664Z,21.63
2023-02-28T08:43:12.192Z,21.6
2023-02-28T08:44:16.329Z,21.64
2023-02-28T08:45:20.487Z,21.63
2023-02-28T08:46:24.669Z,21.63
2023-02-28T08:47:28.822Z,21.61
2023-02-28T08:48:32.979Z,21.63
2023-02-28T08:49:37.108Z,21.64
2023-02-28T08:50:41.267Z,21.6
2023-02-28T08:51:50.711Z,21.64
2023-02-28T08:52:54.849Z,21.64
2023-02-28T08:53:58.992Z,21.61
2023-02-28T08:55:03.146Z,21.59
2023-02-28T08:56:07.320Z,21.63
2023-02-28T08:57:11.476Z,21.63
2023-02-28T08:58:15.712Z,21.63
2023-02-28T08:59:19.852Z,21.63
2023-02-28T09:00:24.046Z,21.64
2023-02-28T09:01:28.711Z,21.6
2023-02-28T09:02:34.228Z,21.46
2023-02-28T09:03:38.432Z,21.63
2023-02-28T09:04:42.855Z,21.6
2023-02-28T09:05:47.012Z,21.62
2023-02-28T09:06:51.182Z,21.62
2023-02-28T09:07:55.346Z,21.61
2023-02-28T09:08:59.532Z,21.59
2023-02-28T09:10:03.712Z,21.6
2023-02-28T09:11:07.955Z,21.59
2023-02-28T09:12:12.168Z,21.61
2023-02-28T09:13:16.302Z,21.6
2023-02-28T09:14:20.462Z,21.61
2023-02-28T09:15:24.595Z,21.58
2023-02-28T09:16:28.894Z,21.61
2023-02-28T09:17:33.193Z,21.61
2023-02-28T09:18:37.336Z,21.62
2023-02-28T09:19:41.741Z,21.6
2023-02-28T09:20:45.924Z,21.6
2023-02-28T09:21:50.089Z,21.63
2023-02-28T09:22:54.276Z,21.64
2023-02-28T09:23:58.424Z,21.64
2023-02-28T09:25:02.565Z,21.61
2023-02-28T09:26:06.744Z,21.61
2023-02-28T09:27:11.339Z,21.65
2023-02-28T09:28:15.677Z,21.65
2023-02-28T09:29:19.837Z,21.67
2023-02-28T09:30:24.118Z,21.64
2023-02-28T09:31:28.463Z,21.66
2023-02-28T09:32:32.631Z,21.65
2023-02-28T09:33:36.911Z,21.68
2023-02-28T09:34:41.152Z,21.69
2023-02-28T09:35:45.424Z,21.7
2023-02-28T09:36:49.978Z,21.71
2023-02-28T09:37:55.678Z,21.71
2023-02-28T09:38:59.850Z,21.77
2023-02-28T09:40:03.998Z,21.76
2023-02-28T09:41:08.145Z,21.83
2023-02-28T09:42:12.270Z,21.87
2023-02-28T09:43:16.384Z,21.91
2023-02-28T09:44:20.538Z,21.97
2023-02-28T09:45:24.659Z,22.03
2023-02-28T09:46:28.874Z,22.08
2023-02-28T09:47:33.325Z,22.13
2023-02-28T09:48:39.473Z,22.16
2023-02-28T09:49:44.907Z,22.18
2023-02-28T09:50:49.035Z,22.21
2023-02-28T09:51:53.150Z,22.24
2023-02-28T09:52:57.310Z,22.29
2023-02-28T09:54:02.406Z,22.3
2023-02-28T09:55:07.680Z,22.36
2023-02-28T09:56:12.435Z,22.37
2023-02-28T09:57:16.607Z,22.39
2023-02-28T09:58:20.798Z,22.45
2023-02-28T09:59:24.972Z,22.48
2023-02-28T10:00:29.146Z,22.52
2023-02-28T10:01:33.556Z,22.56
2023-02-28T10:02:37.941Z,22.59
2023-02-28T10:03:42.087Z,22.61
2023-02-28T10:04:46.282Z,22.65
2023-02-28T10:05:50.741Z,22.66
2023-02-28T10:06:54.883Z,22.67
2023-02-28T10:07:59.014Z,22.71
2023-02-28T10:09:03.338Z,22.69
2023-02-28T10:10:07.967Z,22.7
2023-02-28T10:11:12.188Z,22.72
2023-02-28T10:12:16.335Z,22.69
2023-02-28T10:13:20.468Z,22.73
2023-02-28T10:14:24.756Z,22.73
2023-02-28T10:15:29.108Z,22.71
2023-02-28T10:16:33.396Z,22.44
2023-02-28T10:17:44.330Z,22.69
2023-02-28T10:19:13.057Z,22.72
2023-02-28T10:20:17.212Z,22.69
2023-02-28T10:21:21.390Z,22.73
2023-02-28T10:22:25.549Z,22.74
2023-02-28T10:23:29.737Z,22.76
2023-02-28T10:24:33.953Z,22.77
2023-02-28T10:25:38.109Z,22.8
2023-02-28T10:26:42.266Z,22.84
2023-02-28T10:27:46.379Z,22.88
2023-02-28T10:28:50.515Z,22.91
2023-02-28T10:29:54.682Z,22.98
2023-02-28T10:30:58.824Z,23.01
2023-02-28T10:32:03.282Z,23.03
2023-02-28T10:33:07.597Z,23.04
2023-02-28T10:34:11.872Z,23.04
2023-02-28T10:35:16.021Z,23.04
2023-02-28T10:36:20.228Z,23.03
2023-02-28T10:37:24.636Z,22.94
2023-02-28T10:38:28.820Z,23.01
2023-02-28T10:39:33.004Z,22.98
2023-02-28T10:40:37.535Z,23
2023-02-28T10:41:41.733Z,23.01
2023-02-28T10:42:45.867Z,22.98
2023-02-28T10:43:50.251Z,23
2023-02-28T10:44:54.463Z,23
2023-02-28T10:45:58.778Z,22.96
2023-02-28T10:47:03.180Z,22.94
2023-02-28T10:48:07.328Z,22.96
2023-02-28T10:49:11.490Z,22.92
2023-02-28T10:50:15.687Z,22.95
2023-02-28T10:51:19.819Z,22.91
2023-02-28T10:52:24.012Z,22.92
2023-02-28T10:53:28.199Z,22.87
2023-02-28T10:54:32.372Z,22.88
2023-02-28T10:55:36.610Z,22.85
2023-02-28T10:56:41.131Z,22.86
2023-02-28T10:57:45.364Z,22.83
2023-02-28T10:58:49.471Z,22.84
2023-02-28T10:59:53.685Z,22.83
2023-02-28T11:00:57.818Z,22.84
2023-02-28T11:02:02.068Z,22.85
2023-02-28T11:03:09.047Z,22.85
2023-02-28T11:04:13.331Z,22.85
2023-02-28T11:05:17.886Z,22.85
2023-02-28T11:06:22.230Z,22.83
2023-02-28T11:07:27.785Z,22.84
2023-02-28T11:08:55.849Z,22.81
2023-02-28T11:10:00.042Z,22.8
2023-02-28T11:11:04.195Z,22.82
2023-02-28T11:12:08.342Z,22.8
2023-02-28T11:13:12.487Z,22.82
2023-02-28T11:14:17.039Z,22.83
2023-02-28T11:15:21.173Z,22.8
2023-02-28T11:16:25.522Z,22.79
2023-02-28T11:17:29.795Z,22.78
2023-02-28T11:18:34.133Z,22.78
2023-02-28T11:19:38.390Z,22.78
2023-02-28T11:20:42.553Z,22.8
2023-02-28T11:21:46.836Z,22.8
2023-02-28T11:22:50.993Z,22.79
2023-02-28T11:23:55.161Z,22.81
2023-02-28T11:24:59.314Z,22.81
2023-02-28T11:26:03.476Z,22.78
2023-02-28T11:27:07.629Z,22.79
2023-02-28T11:28:11.902Z,22.77
2023-02-28T11:29:16.023Z,22.79
2023-02-28T11:30:20.313Z,22.76
2023-02-28T11:31:24.474Z,22.78
2023-02-28T11:32:28.889Z,22.75
2023-02-28T11:33:33.654Z,22.78
2023-02-28T11:34:37.804Z,22.78
2023-02-28T11:35:41.971Z,22.77
2023-02-28T11:36:46.213Z,22.77
2023-02-28T11:37:50.382Z,22.77
2023-02-28T11:38:54.524Z,22.77
2023-02-28T11:39:58.666Z,22.75
2023-02-28T11:41:02.832Z,22.77
2023-02-28T11:42:07.040Z,22.78
2023-02-28T11:43:11.187Z,22.77
2023-02-28T11:44:15.346Z,22.77
2023-02-28T11:45:19.508Z,22.74
2023-02-28T11:46:23.678Z,22.76
2023-02-28T11:47:27.938Z,22.76
2023-02-28T11:48:32.156Z,22.76
2023-02-28T11:49:36.308Z,22.72
2023-02-28T11:50:40.466Z,22.74
2023-02-28T11:51:44.645Z,22.74
2023-02-28T11:52:48.814Z,22.74
2023-02-28T11:53:52.953Z,22.75
2023-02-28T11:54:57.165Z,22.74
2023-02-28T11:56:01.332Z,22.75
2023-02-28T11:57:05.465Z,22.74
2023-02-28T11:58:09.621Z,22.73
2023-02-28T11:59:13.744Z,22.74
2023-02-28T12:00:17.921Z,22.73
2023-02-28T12:01:22.042Z,22.7
2023-02-28T12:02:26.253Z,22.73
2023-02-28T12:03:30.730Z,22.72
2023-02-28T12:04:35.049Z,22.73
2023-02-28T12:05:39.224Z,22.7
2023-02-28T12:06:43.386Z,22.72
2023-02-28T12:07:47.504Z,22.7
2023-02-28T12:08:51.652Z,22.69
2023-02-28T12:09:55.789Z,22.73
2023-02-28T12:10:59.979Z,22.71
2023-02-28T12:12:04.160Z,22.7
2023-02-28T12:13:08.332Z,22.72
2023-02-28T12:14:12.565Z,22.68
2023-02-28T12:15:16.698Z,22.71
2023-02-28T12:16:20.861Z,22.71
2023-02-28T12:17:25.322Z,22.71
2023-02-28T12:18:29.509Z,22.71
2023-02-28T12:19:33.636Z,22.7
2023-02-28T12:20:37.745Z,22.67
2023-02-28T12:21:42.033Z,22.7
2023-02-28T12:22:46.498Z,22.7
2023-02-28T12:23:50.890Z,22.7
2023-02-28T12:24:55.025Z,22.67
2023-02-28T12:25:59.295Z,22.67
2023-02-28T12:27:12.597Z,22.69
2023-02-28T12:28:16.739Z,22.67
2023-02-28T12:29:20.911Z,22.68
2023-02-28T12:30:25.087Z,22.68
2023-02-28T12:31:29.511Z,22.69
2023-02-28T12:32:35.024Z,22.68
2023-02-28T12:33:39.541Z,22.64
2023-02-28T12:34:43.691Z,22.66
2023-02-28T12:35:47.883Z,22.65
2023-02-28T12:36:52.128Z,22.68
2023-02-28T12:37:56.281Z,22.68
2023-02-28T12:39:00.438Z,22.65
2023-02-28T12:40:04.652Z,22.64
2023-02-28T12:41:08.855Z,22.67
2023-02-28T12:42:13.003Z,22.67
2023-02-28T12:43:17.154Z,22.64
2023-02-28T12:44:21.281Z,22.64
2023-02-28T12:45:25.510Z,22.62
2023-02-28T12:46:30.033Z,22.64
2023-02-28T12:47:34.409Z,22.62
2023-02-28T12:48:38.551Z,22.62
2023-02-28T12:49:42.727Z,22.64
2023-02-28T12:50:46.860Z,22.64
2023-02-28T12:51:51.002Z,22.64
2023-02-28T12:52:55.137Z,22.64
2023-02-28T12:53:59.467Z,22.64
2023-02-28T12:55:03.615Z,22.61
2023-02-28T12:56:07.784Z,22.63
2023-02-28T12:57:11.897Z,22.62
2023-02-28T12:58:16.126Z,22.62
2023-02-28T12:59:20.280Z,22.63
2023-02-28T13:00:24.433Z,22.64
2023-02-28T13:01:29.457Z,22.65
2023-02-28T13:02:34.735Z,22.64
2023-02-28T13:03:39.111Z,22.63
2023-02-28T13:04:43.265Z,22.63
2023-02-28T13:05:47.569Z,22.63
2023-02-28T13:06:51.712Z,22.63
2023-02-28T13:07:55.872Z,22.61
2023-02-28T13:09:00.054Z,22.61
2023-02-28T13:10:04.207Z,22.61
2023-02-28T13:11:19.889Z,22.61
2023-02-28T13:12:25.324Z,22.63
2023-02-28T13:13:29.511Z,22.64
2023-02-28T13:14:33.662Z,22.63
2023-02-28T13:15:37.971Z,22.63
2023-02-28T13:16:42.376Z,22.6
2023-02-28T13:17:46.620Z,22.63
2023-02-28T13:18:50.747Z,22.6
2023-02-28T13:19:54.884Z,22.62
2023-02-28T13:20:59.053Z,22.62
2023-02-28T13:22:03.195Z,22.62
2023-02-28T13:23:07.399Z,22.63
2023-02-28T13:24:11.522Z,22.61
2023-02-28T13:25:15.658Z,22.61
2023-02-28T13:26:19.820Z,22.58
2023-02-28T13:27:23.994Z,22.6
2023-02-28T13:28:28.140Z,22.59
2023-02-28T13:29:32.902Z,22.59
2023-02-28T13:30:37.110Z,22.59
2023-02-28T13:31:41.326Z,22.55
2023-02-28T13:32:45.499Z,22.57
2023-02-28T13:33:49.692Z,22.57
2023-02-28T13:34:53.961Z,22.57
2023-02-28T13:35:58.112Z,22.56
2023-02-28T13:37:02.294Z,22.55
2023-02-28T13:38:06.489Z,22.51
2023-02-28T13:39:10.669Z,22.51
2023-02-28T13:40:14.937Z,22.53
2023-02-28T13:41:19.109Z,22.53
2023-02-28T13:42:23.274Z,22.53
2023-02-28T13:43:34.667Z,22.52
2023-02-28T13:44:39.988Z,22.52
2023-02-28T13:45:44.168Z,22.52
2023-02-28T13:46:48.600Z,22.52
2023-02-28T13:47:53.147Z,22.51
2023-02-28T13:48:57.357Z,22.48
2023-02-28T13:50:01.487Z,22.52
2023-02-28T13:51:05.606Z,22.52
2023-02-28T13:52:09.762Z,22.52
2023-02-28T13:53:13.948Z,22.53
2023-02-28T13:54:18.277Z,22.54
2023-02-28T13:55:22.442Z,22.54
2023-02-28T13:56:26.583Z,22.52
2023-02-28T13:57:31.566Z,22.54
2023-02-28T13:58:35.704Z,22.55
2023-02-28T13:59:39.955Z,22.53
2023-02-28T14:00:44.094Z,22.54
2023-02-28T14:01:49.128Z,22.57
2023-02-28T14:02:53.634Z,22.55
2023-02-28T14:03:57.987Z,22.56
2023-02-28T14:05:02.200Z,22.59
2023-02-28T14:06:06.620Z,22.59
2023-02-28T14:07:10.763Z,22.59
2023-02-28T14:08:14.883Z,22.57
2023-02-28T14:09:19.042Z,22.6
2023-02-28T14:10:23.237Z,22.6
2023-02-28T14:11:27.363Z,22.6
2023-02-28T14:12:31.506Z,22.58
2023-02-28T14:13:35.650Z,22.61
2023-02-28T14:14:39.787Z,22.62
2023-02-28T14:15:43.950Z,22.57
2023-02-28T14:16:48.361Z,22.6
2023-02-28T14:17:52.654Z,22.63
2023-02-28T14:18:56.822Z,22.63
2023-02-28T14:20:01.145Z,22.6
2023-02-28T14:21:05.336Z,22.61
2023-02-28T14:22:09.504Z,22.63
2023-02-28T14:23:13.652Z,22.61
2023-02-28T14:24:17.798Z,22.64
2023-02-28T14:25:21.955Z,22.65
2023-02-28T14:26:27.670Z,22.62
2023-02-28T14:27:32.803Z,22.65
2023-02-28T14:28:37.057Z,22.63
2023-02-28T14:29:41.166Z,22.64
2023-02-28T14:30:45.306Z,22.65
2023-02-28T14:31:49.720Z,22.65
2023-02-28T14:32:54.216Z,22.65
2023-02-28T14:33:58.345Z,22.62
2023-02-28T14:35:02.518Z,22.66
2023-02-28T14:36:06.831Z,22.66
2023-02-28T14:37:11.114Z,22.66
2023-02-28T14:38:15.263Z,22.65
2023-02-28T14:39:19.386Z,22.63
2023-02-28T14:40:23.618Z,22.63
2023-02-28T14:41:27.837Z,22.66
2023-02-28T14:42:32.045Z,22.63
2023-02-28T14:43:36.212Z,22.63
2023-02-28T14:44:40.406Z,22.62
2023-02-28T14:45:44.613Z,22.63
2023-02-28T14:46:48.762Z,22.65
2023-02-28T14:47:53.162Z,22.64
2023-02-28T14:48:57.289Z,22.64
2023-02-28T14:50:01.487Z,22.62
2023-02-28T14:51:05.637Z,22.62
2023-02-28T14:52:09.787Z,22.63
2023-02-28T14:53:14.031Z,22.48
2023-02-28T14:54:18.212Z,22.63
2023-02-28T14:55:22.338Z,22.6
2023-02-28T14:56:26.473Z,22.62
2023-02-28T14:57:31.377Z,22.62
2023-02-28T14:58:35.759Z,22.53
2023-02-28T14:59:39.940Z,22.61
2023-02-28T15:00:44.070Z,22.6
2023-02-28T15:01:48.312Z,22.57
2023-02-28T15:02:52.641Z,22.58
2023-02-28T15:03:56.798Z,22.58
2023-02-28T15:05:01.015Z,22.57
2023-02-28T15:06:05.479Z,22.46
2023-02-28T15:07:09.664Z,22.56
2023-02-28T15:08:13.848Z,22.55
2023-02-28T15:09:18.119Z,22.55
2023-02-28T15:10:22.267Z,22.54
2023-02-28T15:11:26.418Z,22.53
2023-02-28T15:12:31.086Z,22.49
2023-02-28T15:13:35.302Z,22.52
2023-02-28T15:14:39.493Z,22.51
2023-02-28T15:15:51.494Z,22.51
2023-02-28T15:17:07.478Z,22.47
2023-02-28T15:18:11.620Z,22.49
2023-02-28T15:19:15.772Z,22.5
2023-02-28T15:20:19.966Z,22.47
2023-02-28T15:21:24.247Z,22.45
2023-02-28T15:22:28.378Z,22.48
2023-02-28T15:23:32.705Z,22.47
2023-02-28T15:24:36.845Z,22.46
2023-02-28T15:25:40.988Z,22.45
2023-02-28T15:26:45.114Z,22.45
2023-02-28T15:27:49.275Z,22.44
2023-02-28T15:28:53.454Z,22.43
2023-02-28T15:29:57.603Z,22.43
2023-02-28T15:31:01.800Z,22.42
2023-02-28T15:32:06.413Z,22.39
2023-02-28T15:33:10.921Z,22.42
2023-02-28T15:34:15.179Z,22.38
2023-02-28T15:35:19.350Z,22.41
2023-02-28T15:36:23.506Z,22.4
2023-02-28T15:37:27.725Z,22.4
2023-02-28T15:38:31.883Z,22.37
2023-02-28T15:39:36.055Z,22.39
2023-02-28T15:40:40.194Z,22.39
2023-02-28T15:41:44.355Z,22.38
2023-02-28T15:42:48.580Z,22.37
2023-02-28T15:43:52.769Z,22.35
2023-02-28T15:44:56.921Z,22.37
2023-02-28T15:46:01.129Z,22.36
2023-02-28T15:47:05.426Z,22.36
2023-02-28T15:48:14.025Z,22.35
2023-02-28T15:49:18.582Z,22.35
2023-02-28T15:50:22.817Z,22.28
2023-02-28T15:51:27.126Z,22.34
2023-02-28T15:52:32.289Z,22.31
2023-02-28T15:53:36.437Z,22.33
2023-02-28T15:54:40.615Z,22.33
2023-02-28T15:55:45.124Z,22.33
2023-02-28T15:56:49.269Z,22.32
2023-02-28T15:57:53.408Z,22.29
2023-02-28T15:58:57.573Z,22.31
2023-02-28T16:00:01.824Z,22.27
2023-02-28T16:01:06.036Z,22.28
2023-02-28T16:02:10.299Z,22.3
2023-02-28T16:03:14.913Z,22.3
2023-02-28T16:04:19.214Z,22.29
2023-02-28T16:05:23.379Z,22.26
2023-02-28T16:06:27.533Z,22.26
2023-02-28T16:07:31.696Z,22.28
2023-02-28T16:08:35.834Z,22.29
2023-02-28T16:09:39.958Z,22.28
2023-02-28T16:10:44.087Z,22.27
2023-02-28T16:11:48.248Z,22.26
2023-02-28T16:12:52.434Z,22.23
2023-02-28T16:13:56.621Z,22.25
2023-02-28T16:15:00.755Z,22.25
2023-02-28T16:16:04.941Z,22.24
2023-02-28T16:17:09.187Z,22.23
2023-02-28T16:18:13.312Z,22.21
2023-02-28T16:19:17.466Z,22.2
2023-02-28T16:20:21.677Z,22.21
2023-02-28T16:21:25.823Z,22.18
2023-02-28T16:22:30.928Z,21.91
2023-02-28T16:23:35.070Z,22.17
2023-02-28T16:24:39.693Z,22.17
2023-02-28T16:25:44.190Z,22.17
2023-02-28T16:26:48.594Z,22.19
2023-02-28T16:27:52.801Z,22.16
2023-02-28T16:28:56.949Z,22.15
2023-02-28T16:30:01.137Z,22.18
2023-02-28T16:31:05.339Z,22.17
2023-02-28T16:32:10.039Z,22.17
2023-02-28T16:33:14.412Z,22.16
2023-02-28T16:34:18.579Z,22.12
2023-02-28T16:35:22.761Z,22.15
2023-02-28T16:36:26.967Z,22.15
2023-02-28T16:37:31.223Z,22.15
2023-02-28T16:38:35.419Z,22.11
2023-02-28T16:39:39.556Z,22.14
2023-02-28T16:40:43.726Z,22.14
2023-02-28T16:41:47.857Z,22.13
2023-02-28T16:42:51.987Z,22.13
2023-02-28T16:43:56.154Z,22.13
2023-02-28T16:45:00.284Z,22.1
2023-02-28T16:46:04.511Z,22.12
2023-02-28T16:47:08.824Z,22.12
2023-02-28T16:48:12.959Z,22.08
2023-02-28T16:49:17.113Z,22.09
2023-02-28T16:50:21.285Z,22.09
2023-02-28T16:51:25.437Z,22.05
2023-02-28T16:52:29.600Z,22.08
2023-02-28T16:53:33.729Z,22.06
2023-02-28T16:54:37.874Z,22.06
2023-02-28T16:55:42.001Z,22.03
2023-02-28T16:56:46.166Z,22.04
2023-02-28T16:57:50.319Z,22.04
2023-02-28T16:58:54.455Z,22.04
2023-02-28T16:59:58.652Z,22.04
2023-02-28T17:01:02.828Z,22.03
2023-02-28T17:02:07.242Z,22.03
2023-02-28T17:03:14.368Z,22.02
2023-02-28T17:04:34.477Z,21.99
2023-02-28T17:05:38.708Z,22.01
2023-02-28T17:06:42.972Z,22
2023-02-28T17:07:47.171Z,22
2023-02-28T17:08:51.340Z,22.01
2023-02-28T17:09:55.494Z,22.01
2023-02-28T17:10:59.797Z,21.98
2023-02-28T17:12:03.931Z,22
2023-02-28T17:13:14.831Z,22
2023-02-28T17:14:19.376Z,22.06
2023-02-28T17:15:23.575Z,22.09
2023-02-28T17:16:28.013Z,22.1
2023-02-28T17:17:33.478Z,22.17
2023-02-28T17:18:37.622Z,22.19
2023-02-28T17:19:41.770Z,22.27
2023-02-28T17:20:45.898Z,22.31
2023-02-28T17:21:50.119Z,22.33
2023-02-28T17:22:54.289Z,22.38
2023-02-28T17:23:58.422Z,22.41
2023-02-28T17:25:02.612Z,22.44
2023-02-28T17:26:06.754Z,22.46
2023-02-28T17:27:10.937Z,22.49
2023-02-28T17:28:15.045Z,22.51
2023-02-28T17:29:19.202Z,22.54
2023-02-28T17:30:23.336Z,22.57
2023-02-28T17:31:27.604Z,22.61
2023-02-28T17:32:32.087Z,22.62
2023-02-28T17:33:36.452Z,22.6
2023-02-28T17:34:40.555Z,22.62
2023-02-28T17:35:44.696Z,22.61
2023-02-28T17:36:49.056Z,22.63
2023-02-28T17:37:53.391Z,22.68
2023-02-28T17:38:57.658Z,22.67
2023-02-28T17:40:01.903Z,22.67
2023-02-28T17:41:06.052Z,22.43
2023-02-28T17:42:10.207Z,22.74
2023-02-28T17:43:14.509Z,22.77
2023-02-28T17:44:18.801Z,22.79
2023-02-28T17:45:22.945Z,22.75
2023-02-28T17:46:27.212Z,22.81
2023-02-28T17:47:32.745Z,22.82
2023-02-28T17:48:36.983Z,22.83
2023-02-28T17:49:41.238Z,22.86
2023-02-28T17:50:45.397Z,22.89
2023-02-28T17:51:49.546Z,22.86
2023-02-28T17:52:53.778Z,22.9
2023-02-28T17:53:57.923Z,22.88
2023-02-28T17:55:02.114Z,22.8
2023-02-28T17:56:06.281Z,22.92
2023-02-28T17:57:10.413Z,22.94
2023-02-28T17:58:14.542Z,22.91
2023-02-28T17:59:18.742Z,22.91
2023-02-28T18:00:22.888Z,22.92
2023-02-28T18:01:27.108Z,22.93
2023-02-28T18:02:31.581Z,22.9
2023-02-28T18:03:35.841Z,22.9
2023-02-28T18:04:39.986Z,22.87
2023-02-28T18:05:44.128Z,22.89
2023-02-28T18:06:48.272Z,22.92
2023-02-28T18:07:52.443Z,22.93
2023-02-28T18:08:56.585Z,22.9
2023-02-28T18:10:00.729Z,22.95
2023-02-28T18:11:04.904Z,22.98
2023-02-28T18:12:09.073Z,22.99
2023-02-28T18:13:13.277Z,22.98
2023-02-28T18:14:17.451Z,22.97
2023-02-28T18:15:21.606Z,23.02
2023-02-28T18:16:25.840Z,23.01
2023-02-28T18:17:30.695Z,23.05
2023-02-28T18:18:34.826Z,23.03
2023-02-28T18:19:38.969Z,23.09
2023-02-28T18:20:43.133Z,23.09
2023-02-28T18:21:47.248Z,23.11
2023-02-28T18:22:51.687Z,23.12
2023-02-28T18:23:55.840Z,23.12
2023-02-28T18:25:00.017Z,23.13
2023-02-28T18:26:04.281Z,23.11
2023-02-28T18:27:08.409Z,23.11
2023-02-28T18:28:12.571Z,23.14
2023-02-28T18:29:16.683Z,23.12
2023-02-28T18:30:20.943Z,23.15
2023-02-28T18:31:25.305Z,23.1
2023-02-28T18:32:29.656Z,23.14
2023-02-28T18:33:33.945Z,23.12
2023-02-28T18:34:38.069Z,23.08
2023-02-28T18:35:42.399Z,23.03
2023-02-28T18:36:46.707Z,23.03
2023-02-28T18:37:50.857Z,23
2023-02-28T18:38:55.013Z,23.02
2023-02-28T18:39:59.130Z,23.01
2023-02-28T18:41:03.373Z,23
2023-02-28T18:42:07.538Z,22.97
2023-02-28T18:43:11.673Z,22.94
2023-02-28T18:44:20.482Z,22.92
2023-02-28T18:45:25.045Z,22.91
2023-02-28T18:46:29.413Z,22.89
2023-02-28T18:47:34.578Z,22.87
2023-02-28T18:48:38.746Z,22.85
2023-02-28T18:49:42.935Z,22.83
2023-02-28T18:50:47.072Z,22.8
2023-02-28T18:51:51.189Z,22.81
2023-02-28T18:52:55.371Z,22.79
2023-02-28T18:53:59.509Z,22.75
2023-02-28T18:55:03.687Z,22.75
2023-02-28T18:56:07.853Z,22.73
2023-02-28T18:57:12.018Z,22.76
2023-02-28T18:58:16.179Z,22.74
2023-02-28T18:59:20.307Z,22.7
2023-02-28T19:00:24.543Z,22.68
2023-02-28T19:01:29.051Z,22.69
2023-02-28T19:02:33.410Z,22.69
2023-02-28T19:03:37.590Z,22.69
2023-02-28T19:04:41.858Z,22.68
2023-02-28T19:05:45.995Z,22.67
2023-02-28T19:06:52.391Z,22.63
2023-02-28T19:07:56.733Z,22.65
2023-02-28T19:09:00.917Z,22.64
2023-02-28T19:10:05.049Z,22.63
2023-02-28T19:11:09.177Z,22.62
2023-02-28T19:12:13.341Z,22.62
2023-02-28T19:13:17.474Z,22.6
2023-02-28T19:14:21.600Z,22.56
2023-02-28T19:15:25.775Z,22.59
2023-02-28T19:16:30.224Z,22.55
2023-02-28T19:17:35.716Z,22.56
2023-02-28T19:18:39.843Z,22.54
2023-02-28T19:19:44.002Z,22.55
2023-02-28T19:20:48.792Z,22.51
2023-02-28T19:21:54.384Z,22.53
2023-02-28T19:23:00.613Z,22.5
2023-02-28T19:24:05.608Z,22.52
2023-02-28T19:25:09.811Z,22.51
2023-02-28T19:26:13.944Z,22.5
2023-02-28T19:27:18.182Z,22.5
2023-02-28T19:28:22.366Z,22.49
2023-02-28T19:29:27.928Z,22.47
2023-02-28T19:30:32.074Z,22.47
2023-02-28T19:31:36.470Z,22.44
2023-02-28T19:32:40.809Z,22.45
2023-02-28T19:33:45.051Z,22.45
2023-02-28T19:34:49.218Z,22.45
2023-02-28T19:35:53.860Z,22.41
2023-02-28T19:36:58.125Z,22.44
2023-02-28T19:38:02.258Z,22.44
2023-02-28T19:39:06.394Z,22.43
2023-02-28T19:40:10.577Z,22.43
2023-02-28T19:41:14.778Z,22.42
2023-02-28T19:42:18.938Z,22.38
2023-02-28T19:43:23.069Z,22.38
2023-02-28T19:44:27.210Z,22.42
2023-02-28T19:45:31.365Z,22.39
2023-02-28T19:46:35.631Z,22.43
2023-02-28T19:47:39.742Z,22.44
2023-02-28T19:48:43.968Z,22.46
2023-02-28T19:49:48.285Z,22.48
2023-02-28T19:50:52.432Z,22.5
2023-02-28T19:51:56.623Z,22.49
2023-02-28T19:53:00.876Z,22.5
2023-02-28T19:54:05.040Z,22.47
2023-02-28T19:55:09.222Z,22.48
2023-02-28T19:56:13.402Z,22.52
2023-02-28T19:57:17.544Z,22.48
2023-02-28T19:58:21.680Z,22.51
2023-02-28T19:59:31.314Z,22.5
2023-02-28T20:00:43.214Z,22.49
2023-02-28T20:01:47.360Z,22.47
2023-02-28T20:02:51.550Z,22.5
2023-02-28T20:03:55.696Z,22.49
2023-02-28T20:05:01.171Z,22.54
2023-02-28T20:06:05.566Z,22.57
2023-02-28T20:07:09.698Z,22.6
2023-02-28T20:08:13.857Z,22.66
2023-02-28T20:09:17.969Z,22.72
2023-02-28T20:10:22.106Z,22.74
2023-02-28T20:11:26.276Z,22.83
2023-02-28T20:12:30.571Z,22.85
2023-02-28T20:13:34.838Z,22.89
2023-02-28T20:14:39.000Z,22.97
2023-02-28T20:15:43.138Z,22.96
2023-02-28T20:16:47.378Z,23.03
2023-02-28T20:17:51.712Z,23.07
2023-02-28T20:18:55.872Z,23.11
2023-02-28T20:20:00.012Z,23.11
2023-02-28T20:21:04.186Z,23.15
2023-02-28T20:22:08.324Z,23.2
2023-02-28T20:23:12.472Z,23.17
2023-02-28T20:24:16.603Z,23.17
2023-02-28T20:25:20.743Z,23.2
2023-02-28T20:26:24.905Z,23.25
2023-02-28T20:27:29.279Z,23.21
2023-02-28T20:28:33.505Z,23.21
2023-02-28T20:29:37.655Z,23.23
2023-02-28T20:30:41.855Z,23.22
2023-02-28T20:31:46.139Z,23.18
2023-02-28T20:32:50.581Z,23.16
2023-02-28T20:33:54.846Z,23.13
2023-02-28T20:34:59.011Z,23.16
2023-02-28T20:36:03.180Z,23.11
2023-02-28T20:37:07.408Z,23.13
2023-02-28T20:38:11.543Z,23.11
2023-02-28T20:39:15.681Z,23.1
2023-02-28T20:40:19.839Z,23.09
2023-02-28T20:41:23.973Z,23.06
2023-02-28T20:42:28.113Z,23.02
2023-02-28T20:43:32.243Z,23.04
2023-02-28T20:44:36.390Z,23.01
2023-02-28T20:45:40.534Z,23
2023-02-28T20:46:44.655Z,22.97
2023-02-28T20:47:48.847Z,22.96
2023-02-28T20:48:53.097Z,22.94
2023-02-28T20:49:57.253Z,22.93
2023-02-28T20:51:01.423Z,22.92
2023-02-28T20:52:05.568Z,22.89
2023-02-28T20:53:09.728Z,22.88
2023-02-28T20:54:13.872Z,22.86
2023-02-28T20:55:17.987Z,22.85
2023-02-28T20:56:22.163Z,22.83
2023-02-28T20:57:26.311Z,22.82
2023-02-28T20:58:30.430Z,22.82
2023-02-28T20:59:34.570Z,22.77
2023-02-28T21:00:38.741Z,22.79
2023-02-28T21:01:42.929Z,22.78
2023-02-28T21:02:47.388Z,22.74
2023-02-28T21:03:51.668Z,22.75
2023-02-28T21:04:55.837Z,22.75
2023-02-28T21:05:59.965Z,22.71
2023-02-28T21:07:04.171Z,22.73
2023-02-28T21:08:08.317Z,22.72
2023-02-28T21:09:12.501Z,22.7
2023-02-28T21:10:16.643Z,22.7
2023-02-28T21:11:20.777Z,22.69
2023-02-28T21:12:24.955Z,22.68
2023-02-28T21:13:29.068Z,22.67
2023-02-28T21:14:33.215Z,22.64
2023-02-28T21:15:37.441Z,22.65
2023-02-28T21:16:41.732Z,22.64
2023-02-28T21:17:45.994Z,22.62
2023-02-28T21:18:50.167Z,22.62
2023-02-28T21:19:54.302Z,22.62
2023-02-28T21:20:58.490Z,22.58
2023-02-28T21:22:02.609Z,22.6
2023-02-28T21:23:06.757Z,22.6
2023-02-28T21:24:10.869Z,22.56
2023-02-28T21:25:14.993Z,22.58
2023-02-28T21:26:19.213Z,22.57
2023-02-28T21:27:23.334Z,22.57
2023-02-28T21:28:27.475Z,22.57
2023-02-28T21:29:31.634Z,22.57
2023-02-28T21:30:35.774Z,22.55
2023-02-28T21:31:40.002Z,22.54
2023-02-28T21:32:44.160Z,22.53
2023-02-28T21:33:48.289Z,22.53
2023-02-28T21:34:52.456Z,22.51
2023-02-28T21:35:56.629Z,22.48
2023-02-28T21:37:00.890Z,22.51
2023-02-28T21:38:05.032Z,22.47
2023-02-28T21:39:09.186Z,22.49
2023-02-28T21:40:13.345Z,22.48
2023-02-28T21:41:17.498Z,22.48
2023-02-28T21:42:21.649Z,22.47
2023-02-28T21:43:25.783Z,22.46
2023-02-28T21:44:29.917Z,22.46
2023-02-28T21:45:34.212Z,22.45
2023-02-28T21:46:38.492Z,22.42
2023-02-28T21:47:42.725Z,22.45
2023-02-28T21:48:46.892Z,22.44
2023-02-28T21:49:51.047Z,22.43
2023-02-28T21:50:55.233Z,22.42
2023-02-28T21:51:59.362Z,22.42
2023-02-28T21:53:03.518Z,22.41
2023-02-28T21:54:07.665Z,22.41
2023-02-28T21:55:11.823Z,22.39
2023-02-28T21:56:15.998Z,22.39
2023-02-28T21:57:20.214Z,22.39
2023-02-28T21:58:24.803Z,22.38
2023-02-28T21:59:28.970Z,22.38
2023-02-28T22:00:33.120Z,22.36
2023-02-28T22:01:37.331Z,22.35
2023-02-28T22:02:41.850Z,22.33
2023-02-28T22:03:46.130Z,22.33
2023-02-28T22:04:50.300Z,22.32
2023-02-28T22:05:54.449Z,22.31
2023-02-28T22:06:58.632Z,22.3
2023-02-28T22:08:02.786Z,22.28
2023-02-28T22:09:06.959Z,22.28
2023-02-28T22:10:11.121Z,22.28
2023-02-28T22:11:15.260Z,22.3
2023-02-28T22:12:19.426Z,22.27
2023-02-28T22:13:23.553Z,22.32
2023-02-28T22:14:27.686Z,22.27